Terminal Aerodrome Forecast
Issued by NWS La Crosse, WI

Home | Current Version | Previous Version | Text Only | Print | Product List | Glossary On
Versions: 1 2 3 4 5 6 7 8 9 10 11 12 13 14 15 16 17 18 19 20 21 22 23 24 25 26 27 28 29 30
000
FTUS43 KARX 182036 AAB
TAFLSE
TAF AMD
KLSE 182036Z 1821/1918 18012KT P6SM SCT014
     FM191000 18004KT 4SM BR BKN008
     FM191200 18004KT 2SM BR BKN008
     FM191400 16004KT 4SM BR BKN010
     FM191700 16004KT P6SM BKN015=

USA.gov is the U.S. government's official web portal to all federal, state and local government web resources and services.